createdAt,value
2023-04-24T00:02:12.125Z,95402.78
2023-04-24T00:04:41.955Z,95391.88
2023-04-24T00:07:10.364Z,95391.56
2023-04-24T00:09:38.738Z,95393.84
2023-04-24T00:12:07.088Z,95391.63
2023-04-24T00:14:35.926Z,95386.72
2023-04-24T00:17:05.544Z,95377.75
2023-04-24T00:19:33.977Z,95378.88
2023-04-24T00:22:02.341Z,95378.78
2023-04-24T00:24:30.872Z,95374.13
2023-04-24T00:26:59.460Z,95374.97
2023-04-24T00:29:27.710Z,95368.22
2023-04-24T00:31:56.014Z,95361.66
2023-04-24T00:34:25.728Z,95365.31
2023-04-24T00:36:53.981Z,95363.50
2023-04-24T00:39:22.236Z,95365.66
2023-04-24T00:41:51.904Z,95366.63
2023-04-24T00:44:20.186Z,95372.19
2023-04-24T00:46:52.796Z,95370.88
2023-04-24T00:49:21.258Z,95376.88
2023-04-24T00:51:52.188Z,95364.41
2023-04-24T00:54:20.801Z,95381.03
2023-04-24T00:56:49.426Z,95379.75
2023-04-24T00:59:18.928Z,95376.31
2023-04-24T01:01:47.602Z,95370.06
2023-04-24T01:04:16.615Z,95365.81
2023-04-24T01:06:46.030Z,95365.34
2023-04-24T01:09:16.577Z,95377.06
2023-04-24T01:11:44.942Z,95371.28
2023-04-24T01:14:13.442Z,95364.13
2023-04-24T01:16:42.454Z,95372.75
2023-04-24T01:19:12.255Z,95364.06
2023-04-24T01:21:41.498Z,95374.31
2023-04-24T01:24:11.186Z,95365.19
2023-04-24T01:26:39.502Z,95366.38
2023-04-24T01:29:08.054Z,95364.00
2023-04-24T01:31:36.703Z,95366.44
2023-04-24T01:34:04.994Z,95359.06
2023-04-24T01:36:34.107Z,95365.22
2023-04-24T01:39:03.477Z,95349.00
2023-04-24T01:41:33.370Z,95351.03
2023-04-24T01:44:01.719Z,95352.63
2023-04-24T01:46:30.132Z,95352.53
2023-04-24T01:48:59.073Z,95356.03
2023-04-24T01:51:27.946Z,95354.03
2023-04-24T01:53:56.393Z,95353.47
2023-04-24T01:56:24.772Z,95355.59
2023-04-24T01:58:54.861Z,95354.09
2023-04-24T02:01:23.278Z,95354.50
2023-04-24T02:03:51.738Z,95359.13
2023-04-24T02:06:20.109Z,95355.78
2023-04-24T02:08:48.359Z,95347.44
2023-04-24T02:11:16.545Z,95352.50
2023-04-24T02:13:44.770Z,95344.94
2023-04-24T02:16:14.537Z,95346.25
2023-04-24T02:18:42.817Z,95347.03
2023-04-24T02:21:11.091Z,95345.66
2023-04-24T02:23:39.399Z,95349.50
2023-04-24T02:26:08.210Z,95345.66
2023-04-24T02:28:36.403Z,95340.59
2023-04-24T02:31:04.678Z,95341.47
2023-04-24T02:33:34.335Z,95344.91
2023-04-24T02:36:02.644Z,95345.59
2023-04-24T02:38:30.896Z,95347.97
2023-04-24T02:40:59.122Z,95344.31
2023-04-24T02:43:27.889Z,95338.03
2023-04-24T02:45:56.167Z,95335.03
2023-04-24T02:48:24.686Z,95336.16
2023-04-24T02:50:54.446Z,95337.50
2023-04-24T02:53:22.713Z,95339.94
2023-04-24T02:55:50.997Z,95335.56
2023-04-24T02:58:20.974Z,95338.19
2023-04-24T03:00:49.616Z,95333.50
2023-04-24T03:03:17.864Z,95337.09
2023-04-24T03:05:46.770Z,95342.53
2023-04-24T03:08:16.517Z,95338.53
2023-04-24T03:10:46.838Z,95341.44
2023-04-24T03:13:17.330Z,95336.59
2023-04-24T03:15:45.977Z,95335.06
2023-04-24T03:18:14.268Z,95332.03
2023-04-24T03:20:42.594Z,95339.22
2023-04-24T03:23:10.857Z,95335.56
2023-04-24T03:25:40.646Z,95339.50
2023-04-24T03:28:08.853Z,95336.19
2023-04-24T03:30:37.059Z,95333.91
2023-04-24T03:33:05.354Z,95341.66
2023-04-24T03:35:33.529Z,95353.22
2023-04-24T03:38:01.748Z,95346.59
2023-04-24T03:40:30.656Z,95355.22
2023-04-24T03:43:00.318Z,95345.06
2023-04-24T03:45:28.619Z,95356.81
2023-04-24T03:47:56.921Z,95364.84
2023-04-24T03:50:25.358Z,95360.50
2023-04-24T03:52:53.575Z,95352.28
2023-04-24T03:55:21.799Z,95360.84
2023-04-24T03:57:50.115Z,95348.28
2023-04-24T04:00:19.702Z,95352.72
2023-04-24T04:02:48.048Z,95355.13
2023-04-24T04:05:16.523Z,95355.97
2023-04-24T04:07:44.829Z,95347.38
2023-04-24T04:10:13.062Z,95350.78
2023-04-24T04:12:41.355Z,95354.31
2023-04-24T04:15:09.948Z,95343.47
2023-04-24T04:17:40.017Z,95344.66
2023-04-24T04:20:10.855Z,95341.00
2023-04-24T04:22:39.288Z,95338.53
2023-04-24T04:25:09.743Z,95339.25
2023-04-24T04:27:40.321Z,95342.28
2023-04-24T04:30:22.113Z,95343.75
2023-04-24T04:32:52.302Z,95346.63
2023-04-24T04:35:22.324Z,95349.59
2023-04-24T04:37:52.969Z,95351.66
2023-04-24T04:40:21.446Z,95352.97
2023-04-24T04:42:49.696Z,95358.44
2023-04-24T04:45:18.662Z,95358.50
2023-04-24T04:47:46.912Z,95358.59
2023-04-24T04:50:17.662Z,95358.03
2023-04-24T04:52:46.025Z,95361.13
2023-04-24T04:55:15.787Z,95365.19
2023-04-24T04:57:44.055Z,95362.56
2023-04-24T05:00:13.291Z,95366.94
2023-04-24T05:02:41.997Z,95371.28
2023-04-24T05:05:10.933Z,95365.16
2023-04-24T05:07:40.660Z,95375.41
2023-04-24T05:10:10.177Z,95368.66
2023-04-24T05:12:38.421Z,95374.31
2023-04-24T05:15:07.554Z,95373.09
2023-04-24T05:17:35.904Z,95373.25
2023-04-24T05:20:06.352Z,95378.91
2023-04-24T05:22:34.645Z,95375.22
2023-04-24T05:25:04.469Z,95387.53
2023-04-24T05:27:33.081Z,95383.69
2023-04-24T05:30:01.382Z,95389.41
2023-04-24T05:32:29.681Z,95385.03
2023-04-24T05:34:57.955Z,95383.03
2023-04-24T05:37:26.820Z,95374.59
2023-04-24T05:39:55.184Z,95384.56
2023-04-24T05:42:24.807Z,95380.66
2023-04-24T05:44:56.116Z,95386.00
2023-04-24T05:47:27.346Z,95391.00
2023-04-24T05:49:55.876Z,95391.19
2023-04-24T05:52:24.205Z,95387.94
2023-04-24T05:54:52.812Z,95387.16
2023-04-24T05:57:21.587Z,95392.59
2023-04-24T05:59:51.254Z,95393.94
2023-04-24T06:02:19.720Z,95385.94
2023-04-24T06:04:48.353Z,95391.72
2023-04-24T06:07:16.738Z,95394.69
2023-04-24T06:09:45.562Z,95395.22
2023-04-24T06:12:14.012Z,95400.81
2023-04-24T06:14:42.216Z,95401.38
2023-04-24T06:17:11.807Z,95396.41
2023-04-24T06:19:40.114Z,95396.28
2023-04-24T06:22:10.781Z,95400.09
2023-04-24T06:24:39.376Z,95402.00
2023-04-24T06:27:07.716Z,95389.28
2023-04-24T06:29:36.102Z,95392.94
2023-04-24T06:32:04.492Z,95397.81
2023-04-24T06:34:35.024Z,95407.91
2023-04-24T06:37:03.286Z,95399.69
2023-04-24T06:39:31.506Z,95389.94
2023-04-24T06:42:00.471Z,95398.06
2023-04-24T06:44:28.729Z,95402.84
2023-04-24T06:46:56.971Z,95413.38
2023-04-24T06:49:25.404Z,95399.16
2023-04-24T06:51:55.034Z,95407.75
2023-04-24T06:54:23.326Z,95418.00
2023-04-24T06:56:52.444Z,95411.03
2023-04-24T06:59:20.897Z,95412.56
2023-04-24T07:01:49.438Z,95416.94
2023-04-24T07:04:17.987Z,95420.53
2023-04-24T07:06:47.242Z,95421.88
2023-04-24T07:09:17.177Z,95419.75
2023-04-24T07:11:45.716Z,95424.28
2023-04-24T07:14:14.195Z,95424.00
2023-04-24T07:16:42.422Z,95421.03
2023-04-24T07:19:10.840Z,95418.66
2023-04-24T07:21:39.258Z,95419.44
2023-04-24T07:24:10.330Z,95422.88
2023-04-24T07:26:40.813Z,95420.38
2023-04-24T07:29:09.417Z,95422.00
2023-04-24T07:31:37.940Z,95414.81
2023-04-24T07:34:06.428Z,95423.78
2023-04-24T07:36:34.683Z,95424.50
2023-04-24T07:39:02.998Z,95429.88
2023-04-24T07:41:31.233Z,95435.41
2023-04-24T07:44:00.871Z,95455.38
2023-04-24T07:46:30.996Z,95447.19
2023-04-24T07:49:12.343Z,95442.44
2023-04-24T07:51:42.632Z,95427.13
2023-04-24T07:54:11.260Z,95441.31
2023-04-24T07:56:40.330Z,95449.75
2023-04-24T07:59:10.821Z,95432.59
2023-04-24T08:01:39.070Z,95452.84
2023-04-24T08:04:07.911Z,95455.31
2023-04-24T08:06:36.605Z,95460.91
2023-04-24T08:09:05.124Z,95456.84
2023-04-24T08:11:33.998Z,95460.13
2023-04-24T08:14:02.257Z,95462.94
2023-04-24T08:16:31.997Z,95461.63
2023-04-24T08:19:00.217Z,95449.63
2023-04-24T08:21:28.519Z,95465.38
2023-04-24T08:23:56.777Z,95465.44
2023-04-24T08:26:25.100Z,95466.41
2023-04-24T08:28:53.351Z,95462.88
2023-04-24T08:31:21.625Z,95474.53
2023-04-24T08:33:51.266Z,95477.97
2023-04-24T08:36:19.997Z,95472.47
2023-04-24T08:38:48.464Z,95483.19
2023-04-24T08:41:16.998Z,95470.38
2023-04-24T08:43:45.981Z,95494.50
2023-04-24T08:46:15.338Z,95495.53
2023-04-24T08:48:44.006Z,95497.78
2023-04-24T08:51:13.947Z,95515.00
2023-04-24T08:53:42.343Z,95538.84
2023-04-24T08:56:10.921Z,95517.22
2023-04-24T08:58:39.424Z,95525.25
2023-04-24T09:01:07.958Z,95512.56
2023-04-24T09:03:37.078Z,95521.44
2023-04-24T09:06:06.510Z,95515.03
2023-04-24T09:08:36.400Z,95529.66
2023-04-24T09:11:05.635Z,95538.16
2023-04-24T09:13:34.618Z,95528.00
2023-04-24T09:16:02.884Z,95534.44
2023-04-24T09:18:31.217Z,95521.47
2023-04-24T09:21:00.255Z,95523.09
2023-04-24T09:23:29.991Z,95517.97
2023-04-24T09:26:01.133Z,95514.78
2023-04-24T09:28:32.394Z,95519.34
2023-04-24T09:31:08.397Z,95513.78
2023-04-24T09:33:36.823Z,95515.31
2023-04-24T09:36:06.896Z,95520.03
2023-04-24T09:38:36.891Z,95507.59
2023-04-24T09:41:07.968Z,95523.41
2023-04-24T09:43:37.138Z,95512.38
2023-04-24T09:46:08.581Z,95510.53
2023-04-24T09:48:38.897Z,95522.06
2023-04-24T09:51:11.592Z,95515.59
2023-04-24T09:53:41.044Z,95527.28
2023-04-24T09:56:13.393Z,95522.91
2023-04-24T09:58:41.662Z,95517.50
2023-04-24T10:01:09.972Z,95514.38
2023-04-24T10:03:38.330Z,95506.41
2023-04-24T10:06:09.950Z,95515.91
2023-04-24T10:08:39.013Z,95510.59
2023-04-24T10:11:08.406Z,95516.81
2023-04-24T10:13:38.376Z,95516.63
2023-04-24T10:16:07.033Z,95514.75
2023-04-24T10:18:36.072Z,95517.94
2023-04-24T10:21:04.703Z,95521.69
2023-04-24T10:23:33.186Z,95515.25
2023-04-24T10:26:02.815Z,95515.25
2023-04-24T10:28:32.733Z,95510.16
2023-04-24T10:31:02.567Z,95514.16
2023-04-24T10:33:31.956Z,95505.53
2023-04-24T10:36:01.148Z,95524.31
2023-04-24T10:38:30.974Z,95508.59
2023-04-24T10:41:10.181Z,95503.97
2023-04-24T10:43:38.758Z,95498.41
2023-04-24T10:46:09.305Z,95499.28
2023-04-24T10:48:37.349Z,95498.16
2023-04-24T10:51:05.738Z,95489.97
2023-04-24T10:53:37.125Z,95486.72
2023-04-24T10:56:07.117Z,95493.84
2023-04-24T10:58:41.178Z,95502.22
2023-04-24T11:01:11.179Z,95502.00
2023-04-24T11:03:42.850Z,95504.28
2023-04-24T11:06:11.520Z,95487.78
2023-04-24T11:08:41.665Z,95462.47
2023-04-24T11:11:14.116Z,95502.19
2023-04-24T11:14:09.806Z,95520.84
2023-04-24T11:16:45.601Z,95522.03
2023-04-24T11:19:23.092Z,95537.03
2023-04-24T11:22:01.873Z,95528.41
2023-04-24T11:24:32.806Z,95538.69
2023-04-24T11:27:07.771Z,95553.00
2023-04-24T11:29:47.265Z,95557.66
2023-04-24T11:32:27.681Z,95567.03
2023-04-24T11:34:57.840Z,95571.78
2023-04-24T11:37:28.853Z,95569.47
2023-04-24T11:40:00.100Z,95556.13
2023-04-24T11:42:30.134Z,95557.22
2023-04-24T11:44:58.796Z,95561.66
2023-04-24T11:47:32.251Z,95562.09
2023-04-24T11:50:01.637Z,95574.81
2023-04-24T11:52:31.476Z,95564.66
2023-04-24T11:55:00.373Z,95557.72
2023-04-24T11:57:34.444Z,95551.72
2023-04-24T12:00:04.619Z,95539.22
2023-04-24T12:02:38.166Z,95544.03
2023-04-24T12:05:09.058Z,95520.44
2023-04-24T12:07:44.142Z,95541.19
2023-04-24T12:10:12.743Z,95529.16
2023-04-24T12:12:41.047Z,95534.47
2023-04-24T12:15:10.637Z,95534.03
2023-04-24T12:17:43.542Z,95519.44
2023-04-24T12:20:12.866Z,95519.72
2023-04-24T12:22:48.704Z,95498.38
2023-04-24T12:25:18.587Z,95530.97
2023-04-24T12:27:47.363Z,95518.22
2023-04-24T12:30:17.149Z,95507.22
2023-04-24T12:32:48.489Z,95518.50
2023-04-24T12:35:21.824Z,95513.84
2023-04-24T12:37:50.609Z,95513.09
2023-04-24T12:40:19.820Z,95507.25
2023-04-24T12:42:50.146Z,95506.78
2023-04-24T12:45:19.260Z,95506.97
2023-04-24T12:47:48.879Z,95504.69
2023-04-24T12:50:17.546Z,95497.66
2023-04-24T12:52:46.314Z,95502.50
2023-04-24T12:55:14.656Z,95451.34
2023-04-24T12:57:42.951Z,95508.84
2023-04-24T13:00:12.127Z,95510.31
2023-04-24T13:02:40.932Z,95538.94
2023-04-24T13:05:12.767Z,95535.22
2023-04-24T13:07:41.475Z,95533.59
2023-04-24T13:10:10.936Z,95537.31
2023-04-24T13:12:39.744Z,95524.31
2023-04-24T13:15:09.172Z,95531.19
2023-04-24T13:17:37.512Z,95532.94
2023-04-24T13:20:06.983Z,95529.56
2023-04-24T13:22:36.624Z,95526.44
2023-04-24T13:25:07.074Z,95529.91
2023-04-24T13:27:35.365Z,95522.63
2023-04-24T13:30:03.806Z,95530.19
2023-04-24T13:32:32.156Z,95533.78
2023-04-24T13:35:00.441Z,95535.66
2023-04-24T13:37:28.834Z,95536.72
2023-04-24T13:39:58.578Z,95540.19
2023-04-24T13:42:26.916Z,95534.50
2023-04-24T13:44:55.481Z,95546.66
2023-04-24T13:47:23.707Z,95534.00
2023-04-24T13:49:52.316Z,95514.13
2023-04-24T13:52:20.721Z,95540.66
2023-04-24T13:54:49.080Z,95531.25
2023-04-24T13:57:18.745Z,95530.75
2023-04-24T13:59:47.399Z,95544.69
2023-04-24T14:02:15.798Z,95547.06
2023-04-24T14:04:44.162Z,95544.19
2023-04-24T14:09:40.777Z,95556.88
2023-04-24T14:12:09.119Z,95544.50
2023-04-24T14:14:38.808Z,95553.59
2023-04-24T14:17:07.848Z,95557.72
2023-04-24T14:19:36.119Z,95570.19
2023-04-24T14:22:04.392Z,95555.16
2023-04-24T14:24:32.876Z,95551.91
2023-04-24T14:27:01.469Z,95556.63
2023-04-24T14:29:29.722Z,95556.69
2023-04-24T14:31:59.362Z,95553.78
2023-04-24T14:34:27.724Z,95544.75
2023-04-24T14:36:56.318Z,95560.19
2023-04-24T14:39:24.565Z,95559.75
2023-04-24T14:41:52.870Z,95563.88
2023-04-24T14:44:21.153Z,95558.66
2023-04-24T14:46:51.416Z,95535.97
2023-04-24T14:49:21.306Z,95548.81
2023-04-24T14:51:49.623Z,95562.28
2023-04-24T14:54:17.939Z,95557.00
2023-04-24T14:56:46.353Z,95567.72
2023-04-24T14:59:14.656Z,95577.16
2023-04-24T15:01:43.043Z,95572.44
2023-04-24T15:04:11.538Z,95580.28
2023-04-24T15:06:41.351Z,95564.66
2023-04-24T15:09:09.602Z,95581.31
2023-04-24T15:11:38.939Z,95582.56
2023-04-24T15:14:07.594Z,95586.25
2023-04-24T15:16:36.294Z,95585.00
2023-04-24T15:19:04.598Z,95583.44
2023-04-24T15:21:33.164Z,95591.16
2023-04-24T15:24:02.807Z,95597.41
2023-04-24T15:26:31.135Z,95601.69
2023-04-24T15:28:59.401Z,95602.28
2023-04-24T15:31:27.724Z,95591.66
2023-04-24T15:33:55.991Z,95602.66
2023-04-24T15:36:24.248Z,95601.47
2023-04-24T15:38:52.902Z,95603.09
2023-04-24T15:41:22.559Z,95609.97
2023-04-24T15:43:50.862Z,95601.34
2023-04-24T15:46:19.171Z,95597.88
2023-04-24T15:48:48.132Z,95612.94
2023-04-24T15:51:16.420Z,95599.44
2023-04-24T15:53:44.777Z,95607.22
2023-04-24T15:56:13.279Z,95611.56
2023-04-24T15:58:42.998Z,95602.72
2023-04-24T16:01:11.408Z,95615.03
2023-04-24T16:03:39.993Z,95612.72
2023-04-24T16:06:08.535Z,95612.34
2023-04-24T16:08:36.767Z,95617.66
2023-04-24T16:11:05.030Z,95621.19
2023-04-24T16:13:34.351Z,95622.47
2023-04-24T16:16:04.314Z,95619.59
2023-04-24T16:18:33.082Z,95622.44
2023-04-24T16:21:01.391Z,95631.53
2023-04-24T16:23:29.769Z,95627.13
2023-04-24T16:25:58.095Z,95641.59
2023-04-24T16:28:27.295Z,95629.81
2023-04-24T16:30:56.041Z,95633.31
2023-04-24T16:33:26.541Z,95639.69
2023-04-24T16:35:54.906Z,95636.16
2023-04-24T16:38:24.440Z,95641.03
2023-04-24T16:40:52.675Z,95630.56
2023-04-24T16:43:21.202Z,95630.66
2023-04-24T16:45:49.473Z,95636.88
2023-04-24T16:48:17.922Z,95633.28
2023-04-24T16:50:47.732Z,95640.97
2023-04-24T16:53:15.996Z,95635.47
2023-04-24T16:55:45.435Z,95635.22
2023-04-24T16:58:13.690Z,95621.03
2023-04-24T17:00:42.127Z,95645.34
2023-04-24T17:03:12.649Z,95642.72
2023-04-24T17:05:41.337Z,95643.25
2023-04-24T17:08:10.943Z,95645.28
2023-04-24T17:10:39.201Z,95637.38
2023-04-24T17:13:23.636Z,95649.44
2023-04-24T17:15:51.954Z,95639.78
2023-04-24T17:18:20.439Z,95652.47
2023-04-24T17:20:48.674Z,95654.13
2023-04-24T17:23:18.590Z,95658.72
2023-04-24T17:25:46.809Z,95661.97
2023-04-24T17:28:21.424Z,95660.50
2023-04-24T17:30:49.708Z,95664.75
2023-04-24T17:33:18.003Z,95663.94
2023-04-24T17:35:46.292Z,95662.06
2023-04-24T17:38:14.557Z,95672.84
2023-04-24T17:40:45.866Z,95677.09
2023-04-24T17:43:17.976Z,95670.78
2023-04-24T17:45:46.488Z,95677.22
2023-04-24T17:48:15.357Z,95671.25
2023-04-24T17:50:44.053Z,95675.22
2023-04-24T17:53:12.566Z,95680.66
2023-04-24T17:55:42.058Z,95680.00
2023-04-24T17:58:11.746Z,95683.19
2023-04-24T18:00:40.638Z,95685.78
2023-04-24T18:03:10.474Z,95696.94
2023-04-24T18:05:40.515Z,95691.13
2023-04-24T18:08:08.911Z,95699.78
2023-04-24T18:10:37.356Z,95696.75
2023-04-24T18:13:06.107Z,95694.53
2023-04-24T18:15:35.866Z,95698.41
2023-04-24T18:18:04.413Z,95718.53
2023-04-24T18:20:32.717Z,95704.16
2023-04-24T18:23:03.002Z,95720.88
2023-04-24T18:25:31.885Z,95717.38
2023-04-24T18:28:00.224Z,95719.84
2023-04-24T18:30:31.074Z,95718.78
2023-04-24T18:33:00.839Z,95717.53
2023-04-24T18:35:29.149Z,95726.81
2023-04-24T18:37:57.442Z,95724.28
2023-04-24T18:40:25.683Z,95722.59
2023-04-24T18:42:53.989Z,95727.22
2023-04-24T18:45:22.339Z,95730.41
2023-04-24T18:47:50.746Z,95735.25
2023-04-24T18:50:20.588Z,95735.22
2023-04-24T18:52:48.861Z,95742.47
2023-04-24T18:55:17.233Z,95745.66
2023-04-24T18:57:46.345Z,95749.44
2023-04-24T19:00:15.346Z,95746.41
2023-04-24T19:02:43.935Z,95735.78
2023-04-24T19:05:12.237Z,95744.69
2023-04-24T19:07:42.281Z,95757.16
2023-04-24T19:10:11.609Z,95743.81
2023-04-24T19:12:40.038Z,95753.31
2023-04-24T19:15:11.604Z,95747.97
2023-04-24T19:17:39.960Z,95760.19
2023-04-24T19:20:09.093Z,95763.44
2023-04-24T19:22:37.680Z,95769.25
2023-04-24T19:25:08.468Z,95773.44
2023-04-24T19:27:37.799Z,95757.34
2023-04-24T19:30:07.356Z,95763.59
2023-04-24T19:32:37.153Z,95765.56
2023-04-24T19:35:06.102Z,95769.19
2023-04-24T19:37:34.459Z,95771.06
2023-04-24T19:40:03.604Z,95768.75
2023-04-24T19:42:43.057Z,95767.22
2023-04-24T19:45:12.888Z,95761.72
2023-04-24T19:47:41.473Z,95762.59
2023-04-24T19:50:10.215Z,95770.72
2023-04-24T19:52:38.630Z,95775.06
2023-04-24T19:55:08.299Z,95770.50
2023-04-24T19:57:38.050Z,95772.84
2023-04-24T20:00:08.161Z,95778.31
2023-04-24T20:02:36.687Z,95772.72
2023-04-24T20:05:05.675Z,95778.19
2023-04-24T20:07:34.103Z,95782.81
2023-04-24T20:10:02.466Z,95771.19
2023-04-24T20:12:30.723Z,95772.22
2023-04-24T20:15:00.910Z,95772.22
2023-04-24T20:17:29.248Z,95775.28
2023-04-24T20:19:57.568Z,95776.53
2023-04-24T20:22:25.949Z,95773.50
2023-04-24T20:24:54.304Z,95783.53
2023-04-24T20:27:22.559Z,95777.00
2023-04-24T20:29:50.993Z,95775.22
2023-04-24T20:32:21.224Z,95781.28
2023-04-24T20:34:49.496Z,95788.25
2023-04-24T20:37:17.780Z,95785.09
2023-04-24T20:39:46.578Z,95780.09
2023-04-24T20:42:16.698Z,95781.97
2023-04-24T20:44:45.616Z,95781.03
2023-04-24T20:47:14.131Z,95778.16
2023-04-24T20:49:43.708Z,95777.28
2023-04-24T20:54:41.848Z,95770.59
2023-04-24T20:57:10.146Z,95777.66
2023-04-24T20:59:38.440Z,95769.72
2023-04-24T21:02:06.740Z,95768.53
2023-04-24T21:04:38.061Z,95776.19
2023-04-24T21:07:09.330Z,95770.00
2023-04-24T21:09:37.594Z,95774.16
2023-04-24T21:12:06.389Z,95776.72
2023-04-24T21:14:34.589Z,95776.47
2023-04-24T21:17:03.338Z,95776.31
2023-04-24T21:19:31.636Z,95777.00
2023-04-24T21:21:59.859Z,95768.56
2023-04-24T21:24:29.474Z,95770.25
2023-04-24T21:26:57.691Z,95769.19
2023-04-24T21:29:26.290Z,95772.16
2023-04-24T21:31:54.748Z,95764.69
2023-04-24T21:34:23.088Z,95765.25
2023-04-24T21:36:51.285Z,95758.09
2023-04-24T21:39:19.537Z,95758.47
2023-04-24T21:41:49.220Z,95765.72
2023-04-24T21:44:17.500Z,95758.41
2023-04-24T21:46:45.885Z,95766.34
2023-04-24T21:49:14.332Z,95765.81
2023-04-24T21:51:42.609Z,95772.13
2023-04-24T21:54:10.854Z,95773.00
2023-04-24T21:56:41.414Z,95763.91
2023-04-24T21:59:10.837Z,95753.81
2023-04-24T22:01:39.135Z,95757.38
2023-04-24T22:04:07.766Z,95751.84
2023-04-24T22:06:36.237Z,95752.69
2023-04-24T22:09:05.956Z,95745.16
2023-04-24T22:11:34.752Z,95752.34
2023-04-24T22:14:02.995Z,95750.69
2023-04-24T22:16:34.457Z,95745.97
2023-04-24T22:19:03.003Z,95739.94
2023-04-24T22:21:31.327Z,95736.13
2023-04-24T22:23:59.625Z,95738.69
2023-04-24T22:26:27.921Z,95743.44
2023-04-24T22:28:56.253Z,95735.59
2023-04-24T22:31:24.877Z,95731.16
2023-04-24T22:33:54.584Z,95728.22
2023-04-24T22:36:22.804Z,95727.66
2023-04-24T22:38:51.683Z,95726.44
2023-04-24T22:41:20.157Z,95714.38
2023-04-24T22:43:48.682Z,95711.97
2023-04-24T22:46:17.629Z,95708.28
2023-04-24T22:48:48.212Z,95717.91
2023-04-24T22:51:18.307Z,95709.75
2023-04-24T22:53:46.820Z,95713.50
2023-04-24T22:56:16.257Z,95702.59
2023-04-24T22:58:44.535Z,95710.69
2023-04-24T23:01:12.947Z,95707.50
2023-04-24T23:03:41.496Z,95708.03
2023-04-24T23:06:10.753Z,95708.81
2023-04-24T23:08:40.401Z,95697.91
2023-04-24T23:11:08.693Z,95698.34
2023-04-24T23:13:37.106Z,95701.66
2023-04-24T23:16:05.949Z,95693.72
2023-04-24T23:18:34.385Z,95700.34
2023-04-24T23:21:03.351Z,95687.56
2023-04-24T23:23:31.616Z,95691.41
2023-04-24T23:26:01.564Z,95694.78
2023-04-24T23:28:29.877Z,95679.31
2023-04-24T23:30:58.420Z,95675.75
2023-04-24T23:33:28.357Z,95664.63
2023-04-24T23:35:56.994Z,95673.13
2023-04-24T23:38:25.309Z,95668.81
2023-04-24T23:40:53.574Z,95661.09
2023-04-24T23:43:23.178Z,95663.03
2023-04-24T23:45:51.403Z,95667.50
2023-04-24T23:48:19.614Z,95667.59
2023-04-24T23:50:47.901Z,95669.69
2023-04-24T23:53:16.615Z,95665.94
2023-04-24T23:55:44.858Z,95663.00
2023-04-24T23:58:13.118Z,95676.31
